createdAt,value
2023-09-26T00:01:45.985Z,96892.78
2023-09-26T00:04:12.391Z,96892.56
2023-09-26T00:06:38.973Z,96891.66
2023-09-26T00:09:05.360Z,96895.28
2023-09-26T00:11:31.699Z,96900.69
2023-09-26T00:13:58.041Z,96902.72
2023-09-26T00:16:24.528Z,96892.72
2023-09-26T00:18:50.992Z,96890.56
2023-09-26T00:21:17.363Z,96895.50
2023-09-26T00:23:43.747Z,96890.88
2023-09-26T00:26:10.071Z,96895.28
2023-09-26T00:28:36.440Z,96892.81
2023-09-26T00:31:02.882Z,96890.38
2023-09-26T00:33:29.247Z,96894.25
2023-09-26T00:35:55.598Z,96887.84
2023-09-26T00:38:22.043Z,96893.13
2023-09-26T00:40:48.392Z,96894.59
2023-09-26T00:43:14.776Z,96892.25
2023-09-26T00:45:41.278Z,96884.13
2023-09-26T00:48:07.702Z,96897.16
2023-09-26T00:50:34.083Z,96890.31
2023-09-26T00:53:00.485Z,96889.88
2023-09-26T00:55:26.874Z,96889.50
2023-09-26T00:57:53.267Z,96891.66
2023-09-26T01:00:19.646Z,96890.50
2023-09-26T01:02:46.120Z,96888.50
2023-09-26T01:05:12.562Z,96892.22
2023-09-26T01:07:38.946Z,96890.31
2023-09-26T01:10:05.375Z,96893.31
2023-09-26T01:12:31.746Z,96893.66
2023-09-26T01:14:58.141Z,96881.97
2023-09-26T01:17:24.548Z,96886.13
2023-09-26T01:19:50.945Z,96877.84
2023-09-26T01:22:17.338Z,96891.31
2023-09-26T01:24:43.738Z,96883.31
2023-09-26T01:27:10.074Z,96881.44
2023-09-26T01:29:36.448Z,96880.28
2023-09-26T01:32:02.837Z,96891.41
2023-09-26T01:34:29.316Z,96887.47
2023-09-26T01:36:55.730Z,96900.53
2023-09-26T01:39:22.150Z,96902.00
2023-09-26T01:41:48.508Z,96896.31
2023-09-26T01:44:14.892Z,96897.41
2023-09-26T01:46:41.374Z,96902.78
2023-09-26T01:49:07.805Z,96903.81
2023-09-26T01:51:34.193Z,96906.59
2023-09-26T01:54:00.537Z,96903.03
2023-09-26T01:56:26.885Z,96900.25
2023-09-26T01:58:53.275Z,96894.91
2023-09-26T02:01:20.812Z,96892.84
2023-09-26T02:03:47.311Z,96900.09
2023-09-26T02:06:13.769Z,96903.81
2023-09-26T02:08:40.119Z,96892.22
2023-09-26T02:11:06.462Z,96883.31
2023-09-26T02:13:32.903Z,96879.16
2023-09-26T02:15:59.394Z,96879.06
2023-09-26T02:18:25.823Z,96880.09
2023-09-26T02:20:52.255Z,96886.94
2023-09-26T02:23:18.624Z,96881.19
2023-09-26T02:25:44.969Z,96885.34
2023-09-26T02:28:11.354Z,96879.38
2023-09-26T02:30:37.751Z,96878.16
2023-09-26T02:33:04.129Z,96884.09
2023-09-26T02:35:30.520Z,96871.50
2023-09-26T02:37:56.855Z,96875.34
2023-09-26T02:40:23.283Z,96870.53
2023-09-26T02:42:49.732Z,96880.50
2023-09-26T02:45:16.112Z,96866.31
2023-09-26T02:47:42.517Z,96875.06
2023-09-26T02:50:08.970Z,96870.34
2023-09-26T02:52:35.320Z,96866.78
2023-09-26T02:55:01.729Z,96861.69
2023-09-26T02:57:28.142Z,96863.16
2023-09-26T02:59:54.494Z,96864.78
2023-09-26T03:02:20.847Z,96858.69
2023-09-26T03:04:47.635Z,96856.88
2023-09-26T03:07:14.057Z,96853.41
2023-09-26T03:09:40.421Z,96855.16
2023-09-26T03:12:06.812Z,96860.31
2023-09-26T03:14:33.183Z,96854.19
2023-09-26T03:16:59.738Z,96858.25
2023-09-26T03:19:26.186Z,96854.41
2023-09-26T03:21:52.588Z,96852.09
2023-09-26T03:24:19.014Z,96848.59
2023-09-26T03:26:45.394Z,96854.19
2023-09-26T03:29:11.739Z,96851.84
2023-09-26T03:31:38.215Z,96848.13
2023-09-26T03:34:04.608Z,96858.94
2023-09-26T03:36:30.960Z,96851.94
2023-09-26T03:38:57.294Z,96856.66
2023-09-26T03:41:23.666Z,96855.31
2023-09-26T03:43:50.160Z,96856.66
2023-09-26T03:46:16.785Z,96850.94
2023-09-26T03:48:43.174Z,96856.09
2023-09-26T03:51:09.523Z,96859.75
2023-09-26T03:53:35.874Z,96856.22
2023-09-26T03:56:02.303Z,96853.59
2023-09-26T03:58:28.743Z,96850.41
2023-09-26T04:00:55.190Z,96854.78
2023-09-26T04:03:23.356Z,96858.47
2023-09-26T04:05:49.862Z,96856.69
2023-09-26T04:08:16.246Z,96850.63
2023-09-26T04:10:42.647Z,96859.72
2023-09-26T04:13:09.006Z,96854.22
2023-09-26T04:15:35.394Z,96847.38
2023-09-26T04:18:01.870Z,96847.28
2023-09-26T04:20:37.058Z,96848.94
2023-09-26T04:23:04.241Z,96857.22
2023-09-26T04:25:30.668Z,96856.41
2023-09-26T04:27:57.141Z,96849.31
2023-09-26T04:30:23.591Z,96849.50
2023-09-26T04:32:50.015Z,96845.28
2023-09-26T04:35:16.390Z,96839.50
2023-09-26T04:37:42.834Z,96841.91
2023-09-26T04:40:09.220Z,96850.03
2023-09-26T04:42:35.580Z,96842.88
2023-09-26T04:45:02.025Z,96846.00
2023-09-26T04:47:28.506Z,96843.72
2023-09-26T04:49:57.426Z,96834.88
2023-09-26T04:52:24.807Z,96847.41
2023-09-26T04:54:51.241Z,96845.66
2023-09-26T04:57:17.595Z,96847.69
2023-09-26T04:59:43.960Z,96845.47
2023-09-26T05:02:10.343Z,96857.28
2023-09-26T05:04:36.741Z,96853.97
2023-09-26T05:07:03.157Z,96861.13
2023-09-26T05:09:29.550Z,96859.38
2023-09-26T05:11:55.888Z,96858.00
2023-09-26T05:14:22.277Z,96859.09
2023-09-26T05:16:48.714Z,96856.34
2023-09-26T05:19:15.209Z,96850.88
2023-09-26T05:21:41.705Z,96852.34
2023-09-26T05:24:08.061Z,96852.69
2023-09-26T05:26:34.434Z,96848.78
2023-09-26T05:29:00.805Z,96844.09
2023-09-26T05:31:27.212Z,96846.13
2023-09-26T05:33:53.892Z,96848.47
2023-09-26T05:36:20.383Z,96845.22
2023-09-26T05:38:46.722Z,96850.94
2023-09-26T05:41:13.158Z,96855.75
2023-09-26T05:43:39.525Z,96862.56
2023-09-26T05:46:05.988Z,96866.72
2023-09-26T05:48:32.394Z,96858.56
2023-09-26T05:50:58.767Z,96862.47
2023-09-26T05:53:25.129Z,96865.63
2023-09-26T05:55:53.667Z,96862.16
2023-09-26T05:58:22.047Z,96863.63
2023-09-26T06:00:48.469Z,96869.59
2023-09-26T06:03:14.881Z,96857.13
2023-09-26T06:05:41.339Z,96865.94
2023-09-26T06:08:07.750Z,96873.78
2023-09-26T06:10:34.114Z,96868.00
2023-09-26T06:13:00.539Z,96871.41
2023-09-26T06:15:26.925Z,96879.47
2023-09-26T06:17:53.309Z,96882.84
2023-09-26T06:20:19.717Z,96874.56
2023-09-26T06:22:46.063Z,96884.88
2023-09-26T06:25:12.499Z,96875.47
2023-09-26T06:27:38.921Z,96881.41
2023-09-26T06:30:05.267Z,96887.94
2023-09-26T06:32:31.700Z,96893.00
2023-09-26T06:34:58.082Z,96878.28
2023-09-26T06:37:24.505Z,96883.47
2023-09-26T06:39:50.890Z,96880.69
2023-09-26T06:42:17.290Z,96880.06
2023-09-26T06:44:43.659Z,96875.69
2023-09-26T06:47:10.042Z,96875.94
2023-09-26T06:49:36.455Z,96873.81
2023-09-26T06:52:02.850Z,96874.81
2023-09-26T06:54:29.249Z,96878.41
2023-09-26T06:56:55.632Z,96881.69
2023-09-26T06:59:22.256Z,96881.69
2023-09-26T07:01:48.668Z,96876.16
2023-09-26T07:04:15.220Z,96885.16
2023-09-26T07:06:41.920Z,96893.56
2023-09-26T07:09:08.281Z,96886.94
2023-09-26T07:11:34.647Z,96886.41
2023-09-26T07:14:01.155Z,96885.50
2023-09-26T07:16:27.853Z,96888.75
2023-09-26T07:18:54.534Z,96889.41
2023-09-26T07:21:21.101Z,96886.78
2023-09-26T07:23:47.449Z,96887.66
2023-09-26T07:26:15.687Z,96885.84
2023-09-26T07:28:42.712Z,96887.41
2023-09-26T07:31:09.273Z,96884.94
2023-09-26T07:33:35.728Z,96883.72
2023-09-26T07:36:02.101Z,96881.03
2023-09-26T07:38:28.455Z,96886.06
2023-09-26T07:40:54.856Z,96886.41
2023-09-26T07:43:21.379Z,96887.28
2023-09-26T07:45:47.900Z,96889.53
2023-09-26T07:48:14.321Z,96895.84
2023-09-26T07:50:40.675Z,96898.75
2023-09-26T07:53:07.037Z,96889.84
2023-09-26T07:55:33.414Z,96889.94
2023-09-26T07:57:59.816Z,96895.56
2023-09-26T08:00:26.198Z,96889.53
2023-09-26T08:02:52.726Z,96885.94
2023-09-26T08:05:19.189Z,96891.00
2023-09-26T08:07:45.789Z,96898.38
2023-09-26T08:10:12.237Z,96892.66
2023-09-26T08:12:38.636Z,96891.19
2023-09-26T08:15:04.985Z,96890.63
2023-09-26T08:17:31.375Z,96887.22
2023-09-26T08:19:57.831Z,96880.69
2023-09-26T08:22:24.201Z,96891.50
2023-09-26T08:24:50.720Z,96881.78
2023-09-26T08:27:17.302Z,96884.31
2023-09-26T08:29:43.685Z,96878.41
2023-09-26T08:32:10.154Z,96885.94
2023-09-26T08:34:36.561Z,96856.03
2023-09-26T08:37:02.962Z,96874.25
2023-09-26T08:39:29.337Z,96851.81
2023-09-26T08:41:55.694Z,96849.66
2023-09-26T08:44:22.027Z,96851.91
2023-09-26T08:46:48.516Z,96837.66
2023-09-26T08:49:14.980Z,96845.63
2023-09-26T08:51:41.376Z,96847.19
2023-09-26T08:54:09.036Z,96815.84
2023-09-26T08:56:36.758Z,96821.97
2023-09-26T08:59:04.203Z,96824.06
2023-09-26T09:01:30.621Z,96823.06
2023-09-26T09:03:57.157Z,96813.03
2023-09-26T09:06:23.532Z,96804.63
2023-09-26T09:08:50.164Z,96796.19
2023-09-26T09:11:16.668Z,96802.69
2023-09-26T09:13:43.030Z,96796.25
2023-09-26T09:16:09.517Z,96817.13
2023-09-26T09:18:35.882Z,96819.53
2023-09-26T09:21:02.224Z,96822.16
2023-09-26T09:25:54.908Z,96804.66
2023-09-26T09:28:21.312Z,96795.78
2023-09-26T09:30:47.749Z,96786.53
2023-09-26T09:33:14.233Z,96787.13
2023-09-26T09:35:40.626Z,96770.34
2023-09-26T09:38:07.014Z,96762.97
2023-09-26T09:40:33.385Z,96746.31
2023-09-26T09:42:59.745Z,96736.25
2023-09-26T09:45:27.129Z,96726.03
2023-09-26T09:47:53.636Z,96704.88
2023-09-26T09:50:19.983Z,96705.22
2023-09-26T09:52:46.358Z,96700.47
2023-09-26T09:55:12.738Z,96726.84
2023-09-26T09:57:39.137Z,96706.19
2023-09-26T10:00:05.536Z,96699.31
2023-09-26T10:02:31.953Z,96712.22
2023-09-26T10:04:58.423Z,96695.44
2023-09-26T10:07:24.844Z,96719.38
2023-09-26T10:09:51.237Z,96729.59
2023-09-26T10:12:17.718Z,96733.13
2023-09-26T10:14:44.283Z,96751.34
2023-09-26T10:17:10.799Z,96772.44
2023-09-26T10:19:54.566Z,96744.44
2023-09-26T10:22:23.707Z,96756.06
2023-09-26T10:24:50.079Z,96738.53
2023-09-26T10:27:27.165Z,96754.56
2023-09-26T10:29:54.860Z,96707.41
2023-09-26T10:32:21.247Z,96707.09
2023-09-26T10:37:33.937Z,96730.16
2023-09-26T10:40:00.318Z,96710.81
2023-09-26T10:43:07.950Z,96742.47
2023-09-26T10:45:13.075Z,96738.97
2023-09-26T10:47:39.487Z,96744.59
2023-09-26T10:50:05.915Z,96740.75
2023-09-26T10:52:32.330Z,96725.03
2023-09-26T10:54:58.750Z,96725.22
2023-09-26T10:57:25.122Z,96706.41
2023-09-26T10:59:51.492Z,96713.41
2023-09-26T11:02:17.867Z,96711.06
2023-09-26T11:04:44.896Z,96695.00
2023-09-26T11:07:11.574Z,96714.25
2023-09-26T11:09:38.081Z,96727.13
2023-09-26T11:12:04.443Z,96734.97
2023-09-26T11:14:30.837Z,96712.25
2023-09-26T11:16:57.703Z,96691.31
2023-09-26T11:19:24.085Z,96676.25
2023-09-26T11:21:50.450Z,96683.16
2023-09-26T11:24:16.791Z,96678.28
2023-09-26T11:26:43.130Z,96689.97
2023-09-26T11:29:09.533Z,96676.31
2023-09-26T11:31:35.993Z,96687.34
2023-09-26T11:34:02.396Z,96666.44
2023-09-26T11:36:28.754Z,96686.56
2023-09-26T11:38:55.121Z,96694.63
2023-09-26T11:41:26.666Z,96691.69
2023-09-26T11:43:58.604Z,96679.69
2023-09-26T11:46:24.996Z,96673.31
2023-09-26T11:48:51.356Z,96680.16
2023-09-26T11:51:17.736Z,96679.31
2023-09-26T11:53:44.083Z,96682.78
2023-09-26T11:56:10.413Z,96680.31
2023-09-26T11:58:36.789Z,96670.75
2023-09-26T12:01:03.164Z,96674.03
2023-09-26T12:03:29.540Z,96660.16
2023-09-26T12:05:56.021Z,96644.84
2023-09-26T12:08:22.369Z,96645.00
2023-09-26T12:10:48.716Z,96644.84
2023-09-26T12:13:15.288Z,96642.75
2023-09-26T12:15:41.670Z,96633.44
2023-09-26T12:18:08.111Z,96651.00
2023-09-26T12:20:34.602Z,96644.88
2023-09-26T12:23:01.040Z,96660.28
2023-09-26T12:25:27.477Z,96672.63
2023-09-26T12:27:53.991Z,96648.78
2023-09-26T12:30:20.336Z,96632.75
2023-09-26T12:32:47.247Z,96630.38
2023-09-26T12:35:13.670Z,96640.03
2023-09-26T12:37:40.060Z,96656.16
2023-09-26T12:40:06.409Z,96640.41
2023-09-26T12:42:32.774Z,96633.69
2023-09-26T12:44:59.120Z,96647.56
2023-09-26T12:47:25.747Z,96646.75
2023-09-26T12:49:52.290Z,96640.44
2023-09-26T12:52:18.677Z,96626.69
2023-09-26T12:54:45.024Z,96632.00
2023-09-26T12:57:11.418Z,96620.13
2023-09-26T12:59:38.040Z,96616.50
2023-09-26T13:02:04.450Z,96622.25
2023-09-26T13:04:30.909Z,96623.47
2023-09-26T13:06:57.352Z,96619.09
2023-09-26T13:09:23.722Z,96632.38
2023-09-26T13:11:50.096Z,96615.44
2023-09-26T13:14:16.519Z,96618.50
2023-09-26T13:16:42.925Z,96635.34
2023-09-26T13:19:09.361Z,96622.31
2023-09-26T13:21:35.705Z,96625.94
2023-09-26T13:24:02.179Z,96607.75
2023-09-26T13:26:28.719Z,96630.34
2023-09-26T13:28:55.910Z,96625.53
2023-09-26T13:31:22.415Z,96625.03
2023-09-26T13:33:48.815Z,96611.06
2023-09-26T13:36:15.159Z,96616.25
2023-09-26T13:38:41.519Z,96629.63
2023-09-26T13:41:07.933Z,96609.69
2023-09-26T13:43:34.536Z,96608.38
2023-09-26T13:46:00.917Z,96590.88
2023-09-26T13:48:27.293Z,96593.41
2023-09-26T13:50:53.660Z,96592.03
2023-09-26T13:53:20.011Z,96608.03
2023-09-26T13:55:46.429Z,96603.19
2023-09-26T13:58:12.794Z,96600.63
2023-09-26T14:00:39.138Z,96600.13
2023-09-26T14:03:05.655Z,96599.75
2023-09-26T14:05:32.147Z,96597.25
2023-09-26T14:07:58.637Z,96607.13
2023-09-26T14:10:25.711Z,96604.28
2023-09-26T14:12:52.177Z,96602.78
2023-09-26T14:15:18.567Z,96589.13
2023-09-26T14:17:44.972Z,96595.31
2023-09-26T14:20:11.411Z,96597.16
2023-09-26T14:22:37.824Z,96607.63
2023-09-26T14:25:04.220Z,96598.06
2023-09-26T14:27:30.568Z,96612.47
2023-09-26T14:29:56.906Z,96598.84
2023-09-26T14:32:23.447Z,96598.44
2023-09-26T14:34:49.943Z,96608.66
2023-09-26T14:37:16.389Z,96604.28
2023-09-26T14:39:42.766Z,96607.38
2023-09-26T14:42:09.126Z,96610.41
2023-09-26T14:44:35.546Z,96617.38
2023-09-26T14:47:02.042Z,96607.59
2023-09-26T14:49:28.443Z,96592.56
2023-09-26T14:51:54.791Z,96601.19
2023-09-26T14:54:21.163Z,96603.13
2023-09-26T14:56:47.688Z,96600.06
2023-09-26T14:59:14.075Z,96600.53
2023-09-26T15:01:40.532Z,96600.44
2023-09-26T15:04:07.076Z,96595.31
2023-09-26T15:06:33.712Z,96597.13
2023-09-26T15:09:00.109Z,96600.88
2023-09-26T15:11:26.544Z,96601.41
2023-09-26T15:13:52.947Z,96594.91
2023-09-26T15:16:19.387Z,96586.97
2023-09-26T15:18:45.777Z,96601.91
2023-09-26T15:21:12.108Z,96608.88
2023-09-26T15:23:38.484Z,96610.34
2023-09-26T15:26:04.907Z,96613.19
2023-09-26T15:28:31.289Z,96612.34
2023-09-26T15:30:57.693Z,96604.16
2023-09-26T15:33:24.107Z,96615.75
2023-09-26T15:35:50.658Z,96617.69
2023-09-26T15:38:17.109Z,96633.59
2023-09-26T15:40:43.582Z,96621.63
2023-09-26T15:43:09.961Z,96611.94
2023-09-26T15:45:36.352Z,96623.09
2023-09-26T15:48:02.793Z,96620.03
2023-09-26T15:50:29.257Z,96628.13
2023-09-26T15:52:55.711Z,96623.94
2023-09-26T15:55:22.072Z,96617.06
2023-09-26T15:57:48.451Z,96615.53
2023-09-26T16:00:14.821Z,96616.28
2023-09-26T16:02:41.275Z,96617.13
2023-09-26T16:05:07.748Z,96604.28
2023-09-26T16:07:34.239Z,96613.31
2023-09-26T16:10:00.598Z,96606.34
2023-09-26T16:12:27.017Z,96608.69
2023-09-26T16:14:53.410Z,96608.41
2023-09-26T16:17:19.842Z,96602.69
2023-09-26T16:19:46.285Z,96603.13
2023-09-26T16:22:12.662Z,96610.16
2023-09-26T16:24:39.017Z,96620.66
2023-09-26T16:27:05.374Z,96619.63
2023-09-26T16:29:32.019Z,96628.44
2023-09-26T16:31:58.551Z,96631.50
2023-09-26T16:34:24.987Z,96630.16
2023-09-26T16:36:51.390Z,96635.00
2023-09-26T16:39:17.759Z,96635.56
2023-09-26T16:41:44.102Z,96656.34
2023-09-26T16:44:11.019Z,96653.00
2023-09-26T16:46:37.581Z,96664.00
2023-09-26T16:49:04.184Z,96682.03
2023-09-26T16:51:30.920Z,96687.91
2023-09-26T16:53:57.291Z,96697.34
2023-09-26T16:56:23.631Z,96712.44
2023-09-26T16:58:50.041Z,96716.66
2023-09-26T17:01:16.427Z,96714.84
2023-09-26T17:03:42.764Z,96715.09
2023-09-26T17:06:09.177Z,96718.38
2023-09-26T17:08:35.594Z,96716.34
2023-09-26T17:11:02.040Z,96713.94
2023-09-26T17:13:28.460Z,96709.03
2023-09-26T17:15:54.812Z,96698.97
2023-09-26T17:18:21.192Z,96692.13
2023-09-26T17:20:47.574Z,96696.31
2023-09-26T17:23:13.917Z,96697.03
2023-09-26T17:25:40.280Z,96701.03
2023-09-26T17:28:06.680Z,96692.81
2023-09-26T17:30:33.031Z,96687.03
2023-09-26T17:32:59.422Z,96690.66
2023-09-26T17:35:25.801Z,96686.09
2023-09-26T17:37:52.195Z,96688.84
2023-09-26T17:40:18.559Z,96687.25
2023-09-26T17:42:44.940Z,96685.53
2023-09-26T17:45:11.330Z,96694.34
2023-09-26T17:47:40.223Z,96683.50
2023-09-26T17:50:06.664Z,96680.44
2023-09-26T17:52:33.087Z,96689.84
2023-09-26T17:54:59.455Z,96688.28
2023-09-26T17:57:25.872Z,96685.16
2023-09-26T17:59:52.255Z,96693.00
2023-09-26T18:02:18.615Z,96688.38
2023-09-26T18:04:45.034Z,96697.19
2023-09-26T18:07:11.411Z,96697.47
2023-09-26T18:09:37.748Z,96706.66
2023-09-26T18:12:04.120Z,96710.38
2023-09-26T18:14:30.459Z,96707.44
2023-09-26T18:16:56.837Z,96713.59
2023-09-26T18:19:23.242Z,96711.94
2023-09-26T18:21:49.584Z,96713.88
2023-09-26T18:24:15.925Z,96712.31
2023-09-26T18:26:42.344Z,96716.91
2023-09-26T18:29:08.746Z,96719.47
2023-09-26T18:31:35.127Z,96724.63
2023-09-26T18:34:01.526Z,96723.16
2023-09-26T18:36:27.892Z,96738.13
2023-09-26T18:38:54.239Z,96739.97
2023-09-26T18:41:22.022Z,96742.03
2023-09-26T18:43:48.701Z,96768.13
2023-09-26T18:46:15.143Z,96777.06
2023-09-26T18:48:41.775Z,96779.28
2023-09-26T18:51:08.152Z,96782.97
2023-09-26T18:53:34.583Z,96780.34
2023-09-26T18:56:01.048Z,96782.91
2023-09-26T18:58:27.449Z,96779.22
2023-09-26T19:00:53.797Z,96777.75
2023-09-26T19:03:20.390Z,96777.56
2023-09-26T19:05:47.007Z,96782.78
2023-09-26T19:08:13.486Z,96780.81
2023-09-26T19:10:39.967Z,96789.00
2023-09-26T19:13:06.350Z,96782.59
2023-09-26T19:15:32.754Z,96788.25
2023-09-26T19:17:59.175Z,96777.63
2023-09-26T19:20:25.562Z,96785.31
2023-09-26T19:22:51.972Z,96778.88
2023-09-26T19:25:18.353Z,96783.13
2023-09-26T19:27:44.734Z,96778.41
2023-09-26T19:30:11.085Z,96779.22
2023-09-26T19:32:37.527Z,96774.78
2023-09-26T19:35:03.970Z,96781.56
2023-09-26T19:37:30.384Z,96773.13
2023-09-26T19:39:56.775Z,96778.31
2023-09-26T19:42:23.156Z,96785.22
2023-09-26T19:44:49.515Z,96784.78
2023-09-26T19:47:15.989Z,96774.13
2023-09-26T19:49:42.416Z,96790.09
2023-09-26T19:52:08.820Z,96784.63
2023-09-26T19:54:35.218Z,96786.19
2023-09-26T19:57:01.592Z,96784.97
2023-09-26T19:59:28.019Z,96787.19
2023-09-26T20:01:54.414Z,96798.34
2023-09-26T20:04:20.852Z,96786.25
2023-09-26T20:06:47.202Z,96791.47
2023-09-26T20:09:13.600Z,96787.09
2023-09-26T20:11:39.929Z,96793.66
2023-09-26T20:14:06.376Z,96790.53
2023-09-26T20:16:32.760Z,96788.81
2023-09-26T20:18:59.140Z,96782.66
2023-09-26T20:21:25.473Z,96797.16
2023-09-26T20:23:51.850Z,96800.00
2023-09-26T20:26:18.230Z,96809.72
2023-09-26T20:28:46.234Z,96811.00
2023-09-26T20:31:14.446Z,96807.56
2023-09-26T20:33:40.802Z,96816.50
2023-09-26T20:36:07.220Z,96815.56
2023-09-26T20:38:33.646Z,96809.09
2023-09-26T20:41:00.007Z,96810.69
2023-09-26T20:43:26.356Z,96813.03
2023-09-26T20:45:52.747Z,96810.22
2023-09-26T20:48:19.112Z,96809.91
2023-09-26T20:50:45.466Z,96814.59
2023-09-26T20:53:11.902Z,96802.53
2023-09-26T20:55:38.332Z,96809.44
2023-09-26T20:58:04.694Z,96811.66
2023-09-26T21:00:31.089Z,96812.56
2023-09-26T21:02:57.469Z,96812.72
2023-09-26T21:05:23.908Z,96815.09
2023-09-26T21:07:50.368Z,96822.28
2023-09-26T21:10:16.760Z,96820.72
2023-09-26T21:12:43.157Z,96820.56
2023-09-26T21:15:09.564Z,96818.38
2023-09-26T21:17:35.957Z,96807.25
2023-09-26T21:20:02.396Z,96811.00
2023-09-26T21:22:28.841Z,96807.84
2023-09-26T21:24:55.174Z,96804.44
2023-09-26T21:27:21.535Z,96808.50
2023-09-26T21:29:47.898Z,96807.09
2023-09-26T21:32:14.359Z,96819.31
2023-09-26T21:34:40.772Z,96818.69
2023-09-26T21:37:07.219Z,96826.53
2023-09-26T21:39:33.571Z,96818.38
2023-09-26T21:41:59.927Z,96819.16
2023-09-26T21:44:26.350Z,96819.16
2023-09-26T21:46:52.714Z,96821.19
2023-09-26T21:49:19.141Z,96819.16
2023-09-26T21:51:45.537Z,96828.56
2023-09-26T21:54:11.908Z,96812.13
2023-09-26T21:56:38.265Z,96821.19
2023-09-26T21:59:04.750Z,96828.22
2023-09-26T22:01:31.167Z,96824.78
2023-09-26T22:03:57.570Z,96826.00
2023-09-26T22:06:24.001Z,96819.28
2023-09-26T22:08:50.347Z,96808.00
2023-09-26T22:11:16.782Z,96811.59
2023-09-26T22:13:43.236Z,96810.69
2023-09-26T22:16:09.653Z,96806.31
2023-09-26T22:18:37.006Z,96805.97
2023-09-26T22:21:03.379Z,96801.59
2023-09-26T22:23:29.757Z,96798.78
2023-09-26T22:25:56.216Z,96797.22
2023-09-26T22:28:22.644Z,96805.06
2023-09-26T22:30:48.987Z,96803.94
2023-09-26T22:33:15.718Z,96793.13
2023-09-26T22:35:42.127Z,96794.09
2023-09-26T22:38:08.521Z,96792.03
2023-09-26T22:40:44.799Z,96802.22
2023-09-26T22:43:16.845Z,96807.56
2023-09-26T22:45:43.247Z,96801.75
2023-09-26T22:48:09.738Z,96795.34
2023-09-26T22:50:36.146Z,96795.94
2023-09-26T22:53:02.536Z,96797.81
2023-09-26T22:55:28.963Z,96791.72
2023-09-26T22:57:55.356Z,96796.25
2023-09-26T23:00:21.694Z,96797.03
2023-09-26T23:02:48.180Z,96810.72
2023-09-26T23:05:14.646Z,96812.75
2023-09-26T23:07:41.011Z,96813.41
2023-09-26T23:10:07.365Z,96804.28
2023-09-26T23:12:33.761Z,96798.66
2023-09-26T23:15:00.196Z,96790.09
2023-09-26T23:17:26.612Z,96785.38
2023-09-26T23:19:53.126Z,96782.91
2023-09-26T23:22:19.513Z,96780.22
2023-09-26T23:24:45.860Z,96777.09
2023-09-26T23:27:12.302Z,96776.31
2023-09-26T23:29:38.641Z,96783.31
2023-09-26T23:32:05.065Z,96776.41
2023-09-26T23:34:31.497Z,96788.94
2023-09-26T23:36:57.928Z,96790.03
2023-09-26T23:39:24.269Z,96786.91
2023-09-26T23:41:50.662Z,96785.66
2023-09-26T23:44:17.095Z,96791.44
2023-09-26T23:46:43.504Z,96789.22
2023-09-26T23:49:09.902Z,96788.25
2023-09-26T23:51:36.263Z,96787.31
2023-09-26T23:54:02.624Z,96788.09
2023-09-26T23:56:29.045Z,96784.84
2023-09-26T23:58:55.621Z,96780.59
